createdAt,value
2019-03-13T00:02:03.998Z,8.77
2019-03-13T00:04:33.615Z,9.17
2019-03-13T00:07:03.598Z,9.67
2019-03-13T00:09:33.246Z,8.35
2019-03-13T00:12:02.977Z,9.03
2019-03-13T00:14:32.626Z,8.83
2019-03-13T00:17:03.311Z,9.93
2019-03-13T00:19:33.145Z,8.33
2019-03-13T00:22:02.864Z,6.83
2019-03-13T00:24:32.545Z,6.83
2019-03-13T00:27:02.195Z,6.87
2019-03-13T00:29:31.861Z,7.60
2019-03-13T00:32:01.699Z,9.57
2019-03-13T00:34:31.701Z,8.07
2019-03-13T00:37:01.307Z,9.20
2019-03-13T00:39:35.714Z,8.07
2019-03-13T00:42:07.169Z,9.57
2019-03-13T00:44:36.822Z,7.10
2019-03-13T00:47:06.737Z,10.43
2019-03-13T00:49:36.390Z,9.87
2019-03-13T00:52:06.109Z,7.07
2019-03-13T00:54:35.770Z,7.63
2019-03-13T00:57:05.493Z,6.40
2019-03-13T00:59:35.211Z,8.93
2019-03-13T01:02:22.645Z,7.47
2019-03-13T01:05:14.423Z,7.67
2019-03-13T01:07:44.078Z,10.30
2019-03-13T01:10:14.075Z,10.20
2019-03-13T01:12:44.002Z,10.30
2019-03-13T01:15:13.897Z,7.58
2019-03-13T01:17:43.554Z,9.03
2019-03-13T01:20:13.564Z,7.20
2019-03-13T01:22:43.217Z,7.50
2019-03-13T01:25:13.019Z,9.37
2019-03-13T01:27:42.958Z,9.97
2019-03-13T01:30:12.989Z,7.35
2019-03-13T01:32:49.221Z,7.00
2019-03-13T01:35:36.086Z,10.80
2019-03-13T01:38:05.731Z,8.03
2019-03-13T01:40:35.381Z,9.13
2019-03-13T01:43:05.062Z,8.87
2019-03-13T01:45:34.774Z,7.23
2019-03-13T01:48:04.870Z,10.33
2019-03-13T01:50:34.593Z,8.50
2019-03-13T01:53:04.850Z,11.73
2019-03-13T01:55:34.501Z,9.57
2019-03-13T01:58:04.954Z,10.80
2019-03-13T02:00:35.053Z,10.47
2019-03-13T02:03:05.208Z,11.97
2019-03-13T02:05:34.870Z,11.93
2019-03-13T02:08:04.838Z,13.07
2019-03-13T02:10:34.496Z,13.97
2019-03-13T02:13:04.939Z,13.77
2019-03-13T02:15:34.683Z,13.47
2019-03-13T02:18:04.961Z,12.87
2019-03-13T02:20:34.658Z,17.20
2019-03-13T02:23:05.192Z,16.37
2019-03-13T02:25:35.031Z,12.73
2019-03-13T02:28:05.170Z,15.53
2019-03-13T02:30:34.829Z,13.30
2019-03-13T02:33:05.101Z,14.10
2019-03-13T02:35:34.785Z,14.57
2019-03-13T02:38:05.009Z,12.23
2019-03-13T02:40:34.662Z,16.13
2019-03-13T02:43:05.292Z,15.70
2019-03-13T02:45:34.954Z,12.87
2019-03-13T02:48:05.275Z,13.98
2019-03-13T02:50:34.947Z,14.10
2019-03-13T02:53:05.052Z,14.38
2019-03-13T02:55:34.749Z,11.88
2019-03-13T02:58:05.048Z,12.77
2019-03-13T03:00:50.157Z,12.27
2019-03-13T03:03:29.870Z,12.13
2019-03-13T03:06:00.489Z,11.07
2019-03-13T03:08:30.148Z,11.13
2019-03-13T03:10:59.834Z,11.10
2019-03-13T03:13:29.842Z,11.03
2019-03-13T03:15:59.498Z,11.70
2019-03-13T03:18:30.447Z,10.57
2019-03-13T03:21:00.306Z,10.30
2019-03-13T03:23:29.978Z,13.53
2019-03-13T03:26:05.988Z,11.27
2019-03-13T03:28:35.799Z,9.80
2019-03-13T03:31:05.524Z,12.33
2019-03-13T03:33:35.467Z,12.03
2019-03-13T03:36:05.098Z,7.83
2019-03-13T03:38:34.745Z,12.50
2019-03-13T03:41:05.284Z,7.67
2019-03-13T03:43:40.755Z,9.43
2019-03-13T03:46:06.526Z,14.97
2019-03-13T03:48:36.210Z,8.77
2019-03-13T03:51:05.934Z,11.50
2019-03-13T03:53:35.616Z,7.87
2019-03-13T03:56:05.545Z,7.77
2019-03-13T03:58:35.492Z,9.83
2019-03-13T04:01:05.266Z,11.73
2019-03-13T04:03:34.919Z,7.53
2019-03-13T04:06:05.147Z,14.03
2019-03-13T04:08:37.895Z,8.40
2019-03-13T04:11:06.448Z,6.57
2019-03-13T04:13:36.202Z,9.77
2019-03-13T04:16:05.855Z,15.13
2019-03-13T04:18:35.592Z,11.03
2019-03-13T04:21:05.394Z,9.23
2019-03-13T04:23:35.440Z,9.80
2019-03-13T04:26:05.300Z,11.33
2019-03-13T04:28:34.966Z,8.23
2019-03-13T04:31:05.310Z,10.77
2019-03-13T04:33:35.186Z,9.23
2019-03-13T04:36:05.149Z,12.67
2019-03-13T04:38:34.840Z,10.25
2019-03-13T04:41:05.413Z,9.37
2019-03-13T04:43:35.499Z,12.37
2019-03-13T04:46:05.261Z,19.40
2019-03-13T04:48:34.922Z,13.60
2019-03-13T04:51:05.172Z,9.10
2019-03-13T04:53:34.830Z,10.27
2019-03-13T04:56:04.974Z,10.03
2019-03-13T04:58:34.648Z,13.85
2019-03-13T05:01:05.118Z,12.58
2019-03-13T05:03:35.056Z,11.35
2019-03-13T05:06:20.963Z,11.50
2019-03-13T05:09:00.251Z,10.17
2019-03-13T05:11:31.480Z,9.03
2019-03-13T05:14:01.406Z,11.90
2019-03-13T05:16:31.070Z,12.70
2019-03-13T05:19:00.738Z,12.37
2019-03-13T05:21:30.667Z,12.67
2019-03-13T05:24:00.358Z,13.20
2019-03-13T05:26:30.022Z,13.60
2019-03-13T05:28:59.701Z,13.00
2019-03-13T05:31:29.356Z,13.47
2019-03-13T05:33:59.094Z,14.23
2019-03-13T05:36:28.750Z,18.57
2019-03-13T05:38:58.413Z,13.63
2019-03-13T05:41:28.174Z,17.37
2019-03-13T05:43:57.907Z,11.27
2019-03-13T05:46:27.559Z,16.00
2019-03-13T05:48:57.219Z,14.80
2019-03-13T05:51:26.957Z,14.40
2019-03-13T05:53:56.702Z,14.77
2019-03-13T05:56:26.354Z,15.57
2019-03-13T05:58:56.012Z,18.73
2019-03-13T06:01:25.674Z,11.33
2019-03-13T06:03:55.372Z,12.87
2019-03-13T06:06:25.022Z,17.13
2019-03-13T06:08:54.713Z,15.37
2019-03-13T06:11:24.358Z,17.73
2019-03-13T06:13:54.017Z,15.13
2019-03-13T06:16:23.859Z,15.98
2019-03-13T06:18:53.519Z,13.73
2019-03-13T06:21:23.187Z,16.40
2019-03-13T06:23:52.849Z,19.77
2019-03-13T06:26:22.749Z,14.87
2019-03-13T06:28:52.416Z,17.63
2019-03-13T06:31:22.071Z,15.93
2019-03-13T06:33:51.735Z,13.83
2019-03-13T06:36:21.388Z,13.28
2019-03-13T06:38:51.026Z,13.60
2019-03-13T06:41:20.732Z,14.63
2019-03-13T06:43:50.635Z,13.03
2019-03-13T06:46:20.291Z,11.03
2019-03-13T06:48:49.955Z,14.03
2019-03-13T06:51:19.603Z,14.13
2019-03-13T06:53:49.265Z,12.10
2019-03-13T06:56:18.993Z,9.83
2019-03-13T06:58:54.898Z,14.17
2019-03-13T07:01:46.348Z,19.60
2019-03-13T07:04:37.828Z,17.80
2019-03-13T07:07:29.275Z,16.33
2019-03-13T07:10:06.742Z,18.17
2019-03-13T07:12:51.167Z,14.13
2019-03-13T07:15:44.224Z,20.52
2019-03-13T07:18:20.054Z,15.10
2019-03-13T07:21:14.964Z,13.87
2019-03-13T07:23:59.646Z,13.63
2019-03-13T07:26:57.563Z,19.80
2019-03-13T07:29:45.690Z,15.20
2019-03-13T07:32:37.141Z,11.70
2019-03-13T07:35:17.715Z,20.77
2019-03-13T07:37:55.062Z,18.63
2019-03-13T07:40:36.654Z,13.53
2019-03-13T07:43:24.530Z,13.00
2019-03-13T07:46:09.902Z,18.63
2019-03-13T07:48:58.591Z,15.30
2019-03-13T07:51:37.014Z,14.70
2019-03-13T07:54:40.967Z,16.57
2019-03-13T07:57:18.298Z,14.75
2019-03-13T08:00:05.706Z,15.27
2019-03-13T08:02:46.567Z,15.37
2019-03-13T08:05:33.783Z,13.33
2019-03-13T08:08:20.194Z,16.33
2019-03-13T08:11:27.142Z,16.73
2019-03-13T08:14:04.432Z,17.10
2019-03-13T08:16:51.958Z,14.20
2019-03-13T08:19:40.634Z,15.25
2019-03-13T08:22:29.434Z,15.57
2019-03-13T08:25:10.355Z,16.50
2019-03-13T08:27:59.278Z,14.33
2019-03-13T08:30:50.779Z,18.87
2019-03-13T08:33:37.303Z,13.43
2019-03-13T08:36:24.538Z,13.70
2019-03-13T08:39:12.480Z,17.43
2019-03-13T08:42:00.193Z,13.00
2019-03-13T08:44:47.270Z,11.00
2019-03-13T08:47:28.241Z,17.10
2019-03-13T08:50:06.901Z,12.80
2019-03-13T08:52:45.479Z,15.33
2019-03-13T08:55:26.248Z,14.00
2019-03-13T08:58:12.672Z,16.53
2019-03-13T09:01:08.141Z,14.93
2019-03-13T09:04:01.531Z,18.00
2019-03-13T09:06:53.186Z,14.47
2019-03-13T09:09:36.468Z,10.60
2019-03-13T09:12:30.789Z,11.53
2019-03-13T09:15:12.405Z,12.13
2019-03-13T09:17:48.556Z,10.80
2019-03-13T09:20:52.358Z,12.17
2019-03-13T09:23:41.050Z,13.00
2019-03-13T09:26:20.653Z,12.00
2019-03-13T09:29:08.005Z,9.90
2019-03-13T09:31:55.601Z,11.00
2019-03-13T09:34:59.502Z,12.60
2019-03-13T09:37:48.437Z,12.57
2019-03-13T09:40:24.863Z,12.15
2019-03-13T09:43:05.911Z,13.53
2019-03-13T09:45:43.230Z,11.63
2019-03-13T09:48:22.133Z,13.13
2019-03-13T09:51:01.415Z,11.03
2019-03-13T09:53:42.692Z,8.43
2019-03-13T09:56:24.794Z,7.63
2019-03-13T09:59:04.026Z,7.30
2019-03-13T10:01:55.507Z,8.13
2019-03-13T10:04:34.084Z,12.07
2019-03-13T10:07:23.813Z,10.00
2019-03-13T10:10:06.166Z,10.70
2019-03-13T10:12:42.391Z,13.93
2019-03-13T10:15:34.347Z,9.13
2019-03-13T10:18:10.557Z,14.93
2019-03-13T10:20:59.394Z,9.77
2019-03-13T10:23:48.332Z,10.97
2019-03-13T10:26:42.983Z,12.53
2019-03-13T10:29:27.031Z,14.00
2019-03-13T10:32:27.968Z,14.47
2019-03-13T10:35:06.480Z,15.63
2019-03-13T10:37:47.453Z,13.57
2019-03-13T10:40:48.323Z,11.97
2019-03-13T10:43:25.389Z,14.30
2019-03-13T10:46:12.530Z,12.70
2019-03-13T10:48:54.297Z,17.90
2019-03-13T10:51:35.292Z,12.67
2019-03-13T10:54:36.511Z,15.23
2019-03-13T10:57:24.158Z,12.90
2019-03-13T11:00:03.190Z,14.60
2019-03-13T11:02:53.774Z,13.50
2019-03-13T11:05:43.111Z,12.90
2019-03-13T11:08:20.290Z,15.45
2019-03-13T11:11:07.682Z,18.37
2019-03-13T11:13:52.954Z,11.70
2019-03-13T11:16:53.604Z,15.63
2019-03-13T11:19:41.136Z,17.93
2019-03-13T11:22:32.298Z,17.90
2019-03-13T11:25:12.656Z,20.37
2019-03-13T11:28:04.197Z,14.77
2019-03-13T11:30:57.123Z,17.27
2019-03-13T11:33:34.164Z,13.87
2019-03-13T11:36:25.726Z,17.33
2019-03-13T11:39:06.023Z,11.77
2019-03-13T11:41:54.743Z,13.60
2019-03-13T11:44:42.372Z,10.33
2019-03-13T11:47:18.215Z,16.20
2019-03-13T11:50:19.171Z,16.23
2019-03-13T11:52:58.892Z,10.10
2019-03-13T11:55:40.023Z,13.87
2019-03-13T11:58:31.930Z,13.03
2019-03-13T12:01:07.433Z,11.63
2019-03-13T12:04:03.014Z,17.87
2019-03-13T12:06:54.796Z,12.70
2019-03-13T12:09:46.424Z,10.73
2019-03-13T12:12:31.261Z,11.73
2019-03-13T12:15:16.092Z,5.73
2019-03-13T12:18:05.073Z,5.07
2019-03-13T12:20:40.476Z,4.93
2019-03-13T12:23:20.878Z,7.87
2019-03-13T12:26:03.304Z,8.30
2019-03-13T12:28:39.682Z,6.40
2019-03-13T12:31:22.854Z,5.47
2019-03-13T12:34:17.621Z,5.07
2019-03-13T12:37:09.323Z,9.60
2019-03-13T12:39:50.188Z,8.57
2019-03-13T12:42:43.565Z,8.53
2019-03-13T12:45:25.685Z,8.00
2019-03-13T12:48:01.492Z,5.60
2019-03-13T12:50:36.394Z,5.57
2019-03-13T12:53:23.723Z,9.83
2019-03-13T12:56:11.013Z,8.53
2019-03-13T12:59:18.687Z,7.57
2019-03-13T13:02:07.368Z,7.60
2019-03-13T13:05:05.071Z,6.80
2019-03-13T13:07:54.026Z,5.27
2019-03-13T13:10:32.931Z,7.10
2019-03-13T13:13:21.903Z,5.37
2019-03-13T13:15:59.646Z,6.62
2019-03-13T13:18:45.194Z,5.23
2019-03-13T13:21:15.099Z,5.30
2019-03-13T13:23:44.760Z,5.53
2019-03-13T13:26:14.425Z,7.10
2019-03-13T13:28:44.170Z,6.43
2019-03-13T13:31:14.011Z,5.75
2019-03-13T13:33:43.654Z,6.83
2019-03-13T13:36:13.313Z,8.48
2019-03-13T13:38:43.122Z,7.27
2019-03-13T13:41:13.091Z,6.97
2019-03-13T13:43:43.722Z,4.13
2019-03-13T13:46:21.950Z,6.53
2019-03-13T13:48:51.602Z,6.97
2019-03-13T13:51:21.504Z,5.03
2019-03-13T13:53:51.234Z,7.07
2019-03-13T13:56:21.056Z,7.40
2019-03-13T13:58:50.701Z,7.25
2019-03-13T14:01:20.361Z,7.55
2019-03-13T14:03:50.221Z,9.20
2019-03-13T14:06:19.876Z,10.23
2019-03-13T14:08:49.526Z,9.13
2019-03-13T14:11:19.190Z,7.17
2019-03-13T14:13:48.862Z,8.50
2019-03-13T14:16:18.654Z,5.67
2019-03-13T14:18:48.410Z,7.53
2019-03-13T14:21:18.087Z,10.70
2019-03-13T14:23:47.751Z,12.67
2019-03-13T14:26:17.597Z,11.73
2019-03-13T14:28:47.322Z,12.00
2019-03-13T14:31:17.064Z,14.73
2019-03-13T14:33:46.731Z,9.77
2019-03-13T14:36:16.455Z,8.70
2019-03-13T14:38:46.119Z,11.67
2019-03-13T14:41:16.038Z,9.18
2019-03-13T14:43:45.908Z,10.50
2019-03-13T14:46:15.708Z,9.60
2019-03-13T14:48:45.363Z,9.87
2019-03-13T14:51:15.023Z,9.47
2019-03-13T14:53:44.682Z,6.97
2019-03-13T14:56:14.921Z,9.13
2019-03-13T14:58:44.587Z,10.13
2019-03-13T15:01:14.313Z,12.80
2019-03-13T15:03:44.223Z,10.97
2019-03-13T15:06:13.886Z,13.78
2019-03-13T15:08:43.775Z,15.90
2019-03-13T15:11:13.496Z,14.97
2019-03-13T15:13:43.228Z,12.20
2019-03-13T15:16:12.958Z,9.97
2019-03-13T15:18:42.615Z,11.17
2019-03-13T15:21:12.298Z,20.93
2019-03-13T15:23:41.953Z,13.50
2019-03-13T15:26:11.609Z,13.17
2019-03-13T15:28:41.355Z,10.03
2019-03-13T15:31:11.011Z,10.00
2019-03-13T15:33:40.658Z,7.93
2019-03-13T15:36:10.569Z,16.30
2019-03-13T15:38:40.221Z,12.13
2019-03-13T15:41:10.914Z,9.70
2019-03-13T15:43:40.628Z,13.00
2019-03-13T15:46:10.676Z,13.05
2019-03-13T15:48:40.511Z,9.47
2019-03-13T15:51:10.164Z,12.20
2019-03-13T15:53:39.838Z,10.80
2019-03-13T15:56:09.500Z,13.35
2019-03-13T15:58:39.423Z,11.67
2019-03-13T16:01:09.213Z,8.83
2019-03-13T16:03:38.878Z,12.60
2019-03-13T16:06:08.717Z,13.07
2019-03-13T16:08:38.375Z,13.47
2019-03-13T16:11:09.489Z,7.53
2019-03-13T16:13:39.393Z,7.63
2019-03-13T16:16:09.146Z,11.17
2019-03-13T16:18:38.816Z,11.97
2019-03-13T16:21:08.557Z,9.50
2019-03-13T16:23:38.371Z,9.10
2019-03-13T16:26:08.027Z,10.80
2019-03-13T16:28:37.708Z,12.43
2019-03-13T16:31:08.206Z,8.30
2019-03-13T16:33:37.927Z,10.93
2019-03-13T16:36:07.590Z,9.10
2019-03-13T16:38:37.373Z,10.37
2019-03-13T16:41:07.406Z,7.37
2019-03-13T16:43:37.074Z,8.17
2019-03-13T16:46:09.758Z,9.33
2019-03-13T16:48:39.420Z,7.07
2019-03-13T16:51:09.077Z,11.47
2019-03-13T16:53:38.735Z,10.30
2019-03-13T16:56:08.381Z,7.50
2019-03-13T16:58:38.384Z,5.97
2019-03-13T17:01:08.198Z,10.03
2019-03-13T17:03:38.602Z,16.47
2019-03-13T17:06:08.512Z,7.83
2019-03-13T17:08:38.183Z,10.30
2019-03-13T17:11:07.902Z,9.50
2019-03-13T17:13:37.907Z,12.60
2019-03-13T17:16:07.695Z,13.60
2019-03-13T17:18:37.382Z,13.90
2019-03-13T17:21:07.548Z,7.30
2019-03-13T17:23:37.837Z,6.10
2019-03-13T17:26:07.582Z,10.67
2019-03-13T17:28:40.335Z,10.27
2019-03-13T17:31:09.993Z,13.75
2019-03-13T17:33:39.919Z,12.03
2019-03-13T17:36:09.733Z,7.10
2019-03-13T17:38:39.433Z,9.33
2019-03-13T17:41:09.112Z,10.20
2019-03-13T17:43:39.777Z,8.57
2019-03-13T17:46:09.510Z,7.87
2019-03-13T17:48:39.387Z,6.80
2019-03-13T17:51:09.034Z,8.00
2019-03-13T17:53:38.900Z,8.00
2019-03-13T17:56:08.837Z,12.20
2019-03-13T17:58:38.616Z,11.77
2019-03-13T18:01:09.507Z,10.93
2019-03-13T18:03:39.175Z,6.97
2019-03-13T18:06:09.112Z,6.83
2019-03-13T18:08:39.008Z,9.60
2019-03-13T18:11:09.352Z,10.63
2019-03-13T18:13:39.030Z,7.83
2019-03-13T18:16:08.678Z,11.47
2019-03-13T18:18:38.588Z,10.60
2019-03-13T18:21:08.336Z,8.87
2019-03-13T18:23:38.000Z,12.10
2019-03-13T18:26:08.027Z,12.93
2019-03-13T18:28:37.700Z,11.87
2019-03-13T18:31:07.617Z,9.57
2019-03-13T18:33:37.328Z,11.47
2019-03-13T18:36:08.268Z,11.90
2019-03-13T18:38:37.954Z,13.10
2019-03-13T18:41:07.688Z,12.03
2019-03-13T18:43:37.355Z,12.67
2019-03-13T18:46:07.159Z,10.13
2019-03-13T18:48:36.823Z,11.63
2019-03-13T18:51:06.494Z,13.20
2019-03-13T18:53:36.142Z,8.77
2019-03-13T18:56:06.056Z,9.23
2019-03-13T18:58:39.045Z,13.50
2019-03-13T19:01:26.296Z,18.17
2019-03-13T19:10:20.349Z,10.03
2019-03-13T19:12:50.308Z,13.23
2019-03-13T19:15:40.069Z,12.47
2019-03-13T19:18:09.758Z,11.40
2019-03-13T19:23:26.813Z,15.57
2019-03-13T19:25:56.545Z,12.27
2019-03-13T19:28:26.698Z,15.13
2019-03-13T19:30:56.522Z,15.13
2019-03-13T19:33:26.504Z,12.13
2019-03-13T19:35:56.170Z,11.27
2019-03-13T19:38:25.852Z,12.23
2019-03-13T19:40:55.509Z,11.97
2019-03-13T19:43:25.444Z,14.10
2019-03-13T19:45:55.188Z,16.63
2019-03-13T19:48:24.869Z,9.77
2019-03-13T19:50:56.601Z,14.77
2019-03-13T19:53:26.204Z,16.15
2019-03-13T19:55:55.870Z,13.40
2019-03-13T19:58:26.793Z,14.10
2019-03-13T20:00:56.455Z,11.03
2019-03-13T20:03:26.198Z,13.43
2019-03-13T20:05:56.011Z,15.53
2019-03-13T20:08:25.670Z,13.70
2019-03-13T20:10:57.950Z,14.17
2019-03-13T20:13:28.178Z,13.00
2019-03-13T20:15:58.242Z,17.03
2019-03-13T20:18:27.996Z,11.73
2019-03-13T20:20:57.685Z,17.35
2019-03-13T20:23:27.347Z,11.83
2019-03-13T20:25:57.256Z,18.20
2019-03-13T20:28:27.300Z,14.70
2019-03-13T20:30:57.041Z,18.97
2019-03-13T20:33:26.954Z,14.07
2019-03-13T20:35:56.697Z,11.80
2019-03-13T20:38:26.436Z,15.70
2019-03-13T20:40:56.245Z,17.13
2019-03-13T20:43:25.925Z,14.50
2019-03-13T20:45:56.132Z,18.03
2019-03-13T20:48:25.805Z,12.77
2019-03-13T20:50:55.469Z,12.73
2019-03-13T20:53:26.073Z,15.87
2019-03-13T20:55:58.645Z,14.93
2019-03-13T20:58:27.363Z,19.43
2019-03-13T21:00:57.027Z,14.70
2019-03-13T21:03:26.750Z,20.47
2019-03-13T21:05:56.419Z,14.43
2019-03-13T21:08:26.082Z,16.37
2019-03-13T21:10:55.917Z,14.37
2019-03-13T21:13:25.864Z,15.33
2019-03-13T21:15:55.838Z,18.90
2019-03-13T21:18:25.494Z,14.03
2019-03-13T21:20:55.405Z,16.57
2019-03-13T21:23:25.064Z,15.53
2019-03-13T21:25:54.749Z,10.93
2019-03-13T21:28:24.424Z,17.00
2019-03-13T21:30:54.159Z,15.23
2019-03-13T21:33:23.892Z,17.57
2019-03-13T21:35:53.555Z,14.10
2019-03-13T21:38:23.501Z,16.20
2019-03-13T21:40:54.444Z,13.17
2019-03-13T21:43:24.402Z,15.27
2019-03-13T21:45:54.072Z,19.70
2019-03-13T21:48:23.797Z,16.50
2019-03-13T21:50:53.475Z,20.53
2019-03-13T21:53:23.230Z,13.27
2019-03-13T21:55:52.895Z,17.57
2019-03-13T21:58:22.560Z,14.30
2019-03-13T22:00:52.223Z,15.53
2019-03-13T22:03:28.776Z,15.43
2019-03-13T22:05:53.625Z,18.63
2019-03-13T22:08:23.692Z,19.60
2019-03-13T22:10:53.368Z,13.67
2019-03-13T22:13:23.196Z,17.80
2019-03-13T22:15:52.948Z,16.20
2019-03-13T22:18:22.809Z,10.20
2019-03-13T22:20:52.487Z,15.47
2019-03-13T22:23:22.167Z,14.57
2019-03-13T22:25:51.835Z,12.47
2019-03-13T22:28:21.511Z,13.67
2019-03-13T22:30:51.194Z,13.97
2019-03-13T22:33:20.877Z,14.05
2019-03-13T22:35:50.521Z,14.60
2019-03-13T22:38:20.288Z,15.03
2019-03-13T22:40:49.962Z,13.13
2019-03-13T22:43:19.691Z,15.43
2019-03-13T22:45:49.423Z,14.23
2019-03-13T22:48:19.099Z,15.47
2019-03-13T22:50:49.899Z,18.63
2019-03-13T22:53:20.527Z,15.60
2019-03-13T22:55:50.194Z,16.60
2019-03-13T22:58:19.932Z,15.43
2019-03-13T23:01:01.917Z,14.10
2019-03-13T23:03:33.321Z,14.20
2019-03-13T23:06:03.305Z,17.17
2019-03-13T23:08:32.985Z,15.27
2019-03-13T23:11:02.789Z,19.67
2019-03-13T23:13:32.447Z,13.57
2019-03-13T23:16:02.196Z,19.33
2019-03-13T23:18:32.111Z,8.70
2019-03-13T23:21:01.799Z,19.50
2019-03-13T23:23:32.200Z,20.03
2019-03-13T23:26:01.849Z,17.03
2019-03-13T23:28:31.581Z,16.60
2019-03-13T23:31:01.316Z,11.07
2019-03-13T23:33:30.971Z,16.48
2019-03-13T23:36:00.625Z,16.60
2019-03-13T23:38:30.303Z,14.03
2019-03-13T23:41:00.143Z,15.50
2019-03-13T23:43:29.824Z,24.30
2019-03-13T23:46:00.140Z,17.70
2019-03-13T23:48:29.819Z,17.70
2019-03-13T23:50:59.476Z,17.07
2019-03-13T23:53:29.151Z,16.90
2019-03-13T23:55:58.824Z,19.43
2019-03-13T23:58:28.740Z,16.80
